createdAt,value
2022-11-16T00:01:21.652Z,24.38
2022-11-16T00:03:50.223Z,24.08
2022-11-16T00:06:17.808Z,23.48
2022-11-16T00:08:47.425Z,23.65
2022-11-16T00:11:17.329Z,23.75
2022-11-16T00:13:44.157Z,24.65
2022-11-16T00:16:15.094Z,23.48
2022-11-16T00:18:42.681Z,23.83
2022-11-16T00:21:09.719Z,23.17
2022-11-16T00:23:37.792Z,23.00
2022-11-16T00:26:05.556Z,23.27
2022-11-16T00:28:34.057Z,22.60
2022-11-16T00:31:01.612Z,23.38
2022-11-16T00:33:28.644Z,23.50
2022-11-16T00:35:55.709Z,22.48
2022-11-16T00:38:23.449Z,23.20
2022-11-16T00:40:50.315Z,24.00
2022-11-16T00:43:17.163Z,22.38
2022-11-16T00:45:45.986Z,24.70
2022-11-16T00:48:13.571Z,23.75
2022-11-16T00:50:40.566Z,22.45
2022-11-16T00:53:08.272Z,22.55
2022-11-16T00:55:35.145Z,23.15
2022-11-16T00:58:01.967Z,23.55
2022-11-16T01:00:28.816Z,23.98
2022-11-16T01:03:03.389Z,25.10
2022-11-16T01:05:30.805Z,23.10
2022-11-16T01:07:57.910Z,25.00
2022-11-16T01:10:26.443Z,23.52
2022-11-16T01:12:53.703Z,23.45
2022-11-16T01:15:23.720Z,25.17
2022-11-16T01:17:51.848Z,24.27
2022-11-16T01:20:21.830Z,23.63
2022-11-16T01:22:48.942Z,23.08
2022-11-16T01:25:16.246Z,22.95
2022-11-16T01:27:43.704Z,22.77
2022-11-16T01:30:13.726Z,22.02
2022-11-16T01:32:40.721Z,22.08
2022-11-16T01:35:08.494Z,23.42
2022-11-16T01:37:36.853Z,24.02
2022-11-16T01:40:07.091Z,23.63
2022-11-16T01:42:34.065Z,24.55
2022-11-16T01:45:05.439Z,23.27
2022-11-16T01:47:35.554Z,23.13
2022-11-16T01:50:11.170Z,22.83
2022-11-16T01:52:43.601Z,21.63
2022-11-16T01:55:11.436Z,22.02
2022-11-16T01:57:42.481Z,21.40
2022-11-16T02:00:11.976Z,21.75
2022-11-16T02:05:06.961Z,20.10
2022-11-16T02:07:57.971Z,20.90
2022-11-16T02:10:35.552Z,19.90
2022-11-16T02:13:18.023Z,20.35
2022-11-16T02:15:51.806Z,20.33
2022-11-16T02:18:29.956Z,20.30
2022-11-16T02:21:44.351Z,18.98
2022-11-16T02:24:47.725Z,18.83
2022-11-16T02:27:37.247Z,19.45
2022-11-16T02:30:07.044Z,20.80
2022-11-16T02:32:38.890Z,20.42
2022-11-16T02:35:12.073Z,20.73
2022-11-16T02:37:43.854Z,20.65
2022-11-16T02:40:13.448Z,19.17
2022-11-16T02:42:44.077Z,21.48
2022-11-16T02:45:17.494Z,21.55
2022-11-16T02:47:46.916Z,21.52
2022-11-16T02:50:16.938Z,22.27
2022-11-16T02:52:43.777Z,21.67
2022-11-16T02:55:11.662Z,20.63
2022-11-16T02:57:44.412Z,22.77
2022-11-16T03:00:20.574Z,21.45
2022-11-16T03:02:55.250Z,21.70
2022-11-16T03:05:25.911Z,24.70
2022-11-16T03:08:00.441Z,24.92
2022-11-16T03:10:27.607Z,25.08
2022-11-16T03:12:54.500Z,26.25
2022-11-16T03:15:23.135Z,25.20
2022-11-16T03:17:50.591Z,26.02
2022-11-16T03:20:22.448Z,27.52
2022-11-16T03:22:52.666Z,26.13
2022-11-16T03:25:21.285Z,27.15
2022-11-16T03:27:53.348Z,28.07
2022-11-16T03:30:24.239Z,27.23
2022-11-16T03:32:56.952Z,29.08
2022-11-16T03:35:27.886Z,32.22
2022-11-16T03:37:57.935Z,37.28
2022-11-16T03:40:27.115Z,33.63
2022-11-16T03:42:55.583Z,32.65
2022-11-16T03:45:28.117Z,30.13
2022-11-16T03:47:54.872Z,33.13
2022-11-16T03:50:21.812Z,33.58
2022-11-16T03:52:48.572Z,32.65
2022-11-16T03:55:15.656Z,31.77
2022-11-16T03:57:42.523Z,33.20
2022-11-16T04:00:10.638Z,35.58
2022-11-16T04:02:38.897Z,33.20
2022-11-16T04:05:06.047Z,35.58
2022-11-16T04:07:32.889Z,35.03
2022-11-16T04:09:59.786Z,35.75
2022-11-16T04:12:26.560Z,32.67
2022-11-16T04:14:53.355Z,33.72
2022-11-16T04:17:23.686Z,34.90
2022-11-16T04:19:58.129Z,33.53
2022-11-16T04:22:31.011Z,34.35
2022-11-16T04:25:05.029Z,32.63
2022-11-16T04:27:32.481Z,34.92
2022-11-16T04:30:01.460Z,32.45
2022-11-16T04:32:28.564Z,34.05
2022-11-16T04:34:57.019Z,34.03
2022-11-16T04:37:23.989Z,33.92
2022-11-16T04:39:50.789Z,33.08
2022-11-16T04:42:18.483Z,33.90
2022-11-16T04:44:45.234Z,33.97
2022-11-16T04:47:12.124Z,33.92
2022-11-16T04:49:38.907Z,33.53
2022-11-16T04:52:07.025Z,32.35
2022-11-16T04:54:36.288Z,32.00
2022-11-16T04:57:03.023Z,33.40
2022-11-16T04:59:29.798Z,32.38
2022-11-16T05:01:56.614Z,32.17
2022-11-16T05:04:23.331Z,33.08
2022-11-16T05:06:50.291Z,30.75
2022-11-16T05:09:18.566Z,31.50
2022-11-16T05:11:45.573Z,30.90
2022-11-16T05:14:15.166Z,33.05
2022-11-16T05:19:08.856Z,30.83
2022-11-16T05:21:35.677Z,30.70
2022-11-16T05:24:03.596Z,30.45
2022-11-16T05:26:34.441Z,30.23
2022-11-16T05:29:01.226Z,30.38
2022-11-16T05:31:27.946Z,30.30
2022-11-16T05:33:54.724Z,29.73
2022-11-16T05:36:22.893Z,31.00
2022-11-16T05:38:52.731Z,29.95
2022-11-16T05:41:22.960Z,28.58
2022-11-16T05:43:51.088Z,28.63
2022-11-16T05:46:17.884Z,29.45
2022-11-16T05:48:44.762Z,29.23
2022-11-16T05:51:11.651Z,32.13
2022-11-16T05:53:38.614Z,30.50
2022-11-16T05:56:06.239Z,30.58
2022-11-16T05:58:33.480Z,30.40
2022-11-16T06:01:01.977Z,28.13
2022-11-16T06:03:29.564Z,29.25
2022-11-16T06:05:56.922Z,29.08
2022-11-16T06:08:23.777Z,28.92
2022-11-16T06:10:50.600Z,28.42
2022-11-16T06:13:17.491Z,28.20
2022-11-16T06:15:50.300Z,27.65
2022-11-16T06:18:18.588Z,27.38
2022-11-16T06:20:45.456Z,25.10
2022-11-16T06:23:12.156Z,26.70
2022-11-16T06:25:39.544Z,27.50
2022-11-16T06:28:08.146Z,27.23
2022-11-16T06:30:35.200Z,28.75
2022-11-16T06:33:01.947Z,28.08
2022-11-16T06:35:30.140Z,28.67
2022-11-16T06:37:57.955Z,29.25
2022-11-16T06:40:25.453Z,29.25
2022-11-16T06:42:52.181Z,29.13
2022-11-16T06:45:18.984Z,28.20
2022-11-16T06:47:46.647Z,29.65
2022-11-16T06:50:13.443Z,28.52
2022-11-16T06:52:41.635Z,29.55
2022-11-16T06:55:09.229Z,31.75
2022-11-16T06:57:36.070Z,32.15
2022-11-16T07:00:04.466Z,32.35
2022-11-16T07:03:09.341Z,30.92
2022-11-16T07:05:39.826Z,32.22
2022-11-16T07:08:08.268Z,33.05
2022-11-16T07:10:35.237Z,33.33
2022-11-16T07:13:02.952Z,35.55
2022-11-16T07:15:29.830Z,38.45
2022-11-16T07:17:56.663Z,36.78
2022-11-16T07:20:23.357Z,37.28
2022-11-16T07:22:50.161Z,34.03
2022-11-16T07:25:18.324Z,32.67
2022-11-16T07:27:45.124Z,32.65
2022-11-16T07:30:13.117Z,33.33
2022-11-16T07:32:40.016Z,33.25
2022-11-16T07:35:07.488Z,32.17
2022-11-16T07:37:34.241Z,31.58
2022-11-16T07:40:01.112Z,29.15
2022-11-16T07:42:29.306Z,28.38
2022-11-16T07:44:56.138Z,28.95
2022-11-16T07:47:22.921Z,29.58
2022-11-16T07:49:49.744Z,27.50
2022-11-16T07:52:16.531Z,28.35
2022-11-16T07:54:43.184Z,27.73
2022-11-16T07:57:10.023Z,28.92
2022-11-16T07:59:38.105Z,27.85
2022-11-16T08:02:04.946Z,28.23
2022-11-16T08:04:31.715Z,26.50
2022-11-16T08:06:58.614Z,28.15
2022-11-16T08:09:25.299Z,27.73
2022-11-16T08:11:52.023Z,27.48
2022-11-16T08:14:18.732Z,28.30
2022-11-16T08:16:46.980Z,27.48
2022-11-16T08:19:15.829Z,27.85
2022-11-16T08:21:42.576Z,27.25
2022-11-16T08:24:09.749Z,28.20
2022-11-16T08:26:36.489Z,27.92
2022-11-16T08:29:03.336Z,27.58
2022-11-16T08:31:30.069Z,28.70
2022-11-16T08:34:00.867Z,27.67
2022-11-16T08:36:27.965Z,26.38
2022-11-16T08:38:54.681Z,26.40
2022-11-16T08:41:21.709Z,25.90
2022-11-16T08:43:48.648Z,27.30
2022-11-16T08:46:15.340Z,27.05
2022-11-16T08:48:42.403Z,27.23
2022-11-16T08:51:20.503Z,26.48
2022-11-16T08:53:49.142Z,26.70
2022-11-16T08:56:18.301Z,27.40
2022-11-16T08:58:45.090Z,28.52
2022-11-16T09:01:14.007Z,28.73
2022-11-16T09:03:41.222Z,28.15
2022-11-16T09:06:11.341Z,29.25
2022-11-16T09:08:40.153Z,28.50
2022-11-16T09:11:08.880Z,30.58
2022-11-16T09:13:35.654Z,30.43
2022-11-16T09:16:02.819Z,30.60
2022-11-16T09:18:30.151Z,30.05
2022-11-16T09:20:57.118Z,31.90
2022-11-16T09:23:25.996Z,30.73
2022-11-16T09:25:53.105Z,33.20
2022-11-16T09:28:20.480Z,30.80
2022-11-16T09:30:50.664Z,31.42
2022-11-16T09:33:17.632Z,30.27
2022-11-16T09:35:45.673Z,30.30
2022-11-16T09:38:17.476Z,31.25
2022-11-16T09:40:55.028Z,30.42
2022-11-16T09:43:42.473Z,29.73
2022-11-16T09:46:25.743Z,30.45
2022-11-16T09:48:58.226Z,30.23
2022-11-16T09:51:29.698Z,32.45
2022-11-16T09:54:02.266Z,31.67
2022-11-16T09:56:34.400Z,32.92
2022-11-16T09:59:17.788Z,31.23
2022-11-16T10:01:50.686Z,31.00
2022-11-16T10:04:22.861Z,31.48
2022-11-16T10:06:53.186Z,33.15
2022-11-16T10:09:22.765Z,31.65
2022-11-16T10:11:59.364Z,31.17
2022-11-16T10:14:56.816Z,31.95
2022-11-16T10:17:33.428Z,30.88
2022-11-16T10:20:18.040Z,30.98
2022-11-16T10:26:30.070Z,30.70
2022-11-16T10:29:14.249Z,31.33
2022-11-16T10:31:57.849Z,31.92
2022-11-16T10:34:37.055Z,32.25
2022-11-16T10:37:07.438Z,31.50
2022-11-16T10:39:34.581Z,31.38
2022-11-16T10:42:10.268Z,29.85
2022-11-16T10:44:41.652Z,27.73
2022-11-16T10:47:19.137Z,29.48
2022-11-16T10:49:53.749Z,32.85
2022-11-16T10:52:20.540Z,30.15
2022-11-16T10:54:47.258Z,30.65
2022-11-16T10:57:16.823Z,29.73
2022-11-16T10:59:47.812Z,29.52
2022-11-16T11:02:30.252Z,30.73
2022-11-16T11:05:06.623Z,29.98
2022-11-16T11:07:35.550Z,28.67
2022-11-16T11:10:02.706Z,27.98
2022-11-16T11:12:29.547Z,28.40
2022-11-16T11:15:07.581Z,30.48
2022-11-16T11:17:35.699Z,27.17
2022-11-16T11:20:04.778Z,28.50
2022-11-16T11:22:33.037Z,29.23
2022-11-16T11:25:02.222Z,28.25
2022-11-16T11:27:33.742Z,28.95
2022-11-16T11:30:01.007Z,28.23
2022-11-16T11:32:34.301Z,29.77
2022-11-16T11:35:02.292Z,28.77
2022-11-16T11:37:34.734Z,31.60
2022-11-16T11:40:07.575Z,37.08
2022-11-16T11:42:36.524Z,36.97
2022-11-16T11:45:08.057Z,43.38
2022-11-16T11:47:58.091Z,43.47
2022-11-16T11:50:38.412Z,43.55
2022-11-16T11:53:11.624Z,42.97
2022-11-16T11:55:40.757Z,41.25
2022-11-16T11:58:13.547Z,39.35
2022-11-16T12:00:50.515Z,38.53
2022-11-16T12:03:41.784Z,36.25
2022-11-16T12:06:17.880Z,31.60
2022-11-16T12:09:09.011Z,26.63
2022-11-16T12:11:53.056Z,27.13
2022-11-16T12:14:52.213Z,26.50
2022-11-16T12:20:44.018Z,25.20
2022-11-16T12:23:31.974Z,25.45
2022-11-16T12:26:10.167Z,24.65
2022-11-16T12:28:58.250Z,23.23
2022-11-16T12:31:51.651Z,24.30
2022-11-16T12:34:30.602Z,21.80
2022-11-16T12:37:12.150Z,21.67
2022-11-16T12:40:02.782Z,18.63
2022-11-16T12:42:44.123Z,20.60
2022-11-16T12:45:46.823Z,21.23
2022-11-16T12:48:42.312Z,20.23
2022-11-16T12:51:21.136Z,21.67
2022-11-16T12:54:11.019Z,22.80
2022-11-16T12:56:54.626Z,22.38
2022-11-16T12:59:38.660Z,21.00
2022-11-16T13:02:17.520Z,22.48
2022-11-16T13:04:52.705Z,23.23
2022-11-16T13:07:27.768Z,22.73
2022-11-16T13:10:00.994Z,22.45
2022-11-16T13:12:30.611Z,23.42
2022-11-16T13:15:08.934Z,23.80
2022-11-16T13:23:58.717Z,23.23
2022-11-16T13:26:35.132Z,22.55
2022-11-16T13:29:12.011Z,23.42
2022-11-16T13:31:44.836Z,21.33
2022-11-16T13:34:19.012Z,21.55
2022-11-16T13:36:46.662Z,19.77
2022-11-16T13:39:28.547Z,19.83
2022-11-16T13:42:24.434Z,18.95
2022-11-16T13:45:04.544Z,19.20
2022-11-16T13:47:48.668Z,17.88
2022-11-16T13:50:25.645Z,18.02
2022-11-16T13:56:06.176Z,20.33
2022-11-16T13:58:37.534Z,19.30
2022-11-16T14:01:06.721Z,19.75
2022-11-16T14:03:36.614Z,19.10
2022-11-16T14:09:41.726Z,20.17
2022-11-16T14:12:53.069Z,20.35
2022-11-16T14:15:32.817Z,20.52
2022-11-16T14:18:22.240Z,21.67
2022-11-16T14:23:35.099Z,19.95
2022-11-16T14:26:12.700Z,19.42
2022-11-16T14:28:51.194Z,19.60
2022-11-16T14:31:25.394Z,18.05
2022-11-16T14:33:54.782Z,17.58
2022-11-16T14:36:37.661Z,17.02
2022-11-16T14:39:30.791Z,17.42
2022-11-16T14:42:00.685Z,17.48
2022-11-16T14:44:31.827Z,18.30
2022-11-16T14:47:02.297Z,17.52
2022-11-16T14:49:33.018Z,17.27
2022-11-16T14:52:01.649Z,18.83
2022-11-16T14:54:36.779Z,18.90
2022-11-16T14:57:06.101Z,19.83
2022-11-16T14:59:33.028Z,19.88
2022-11-16T15:02:04.880Z,19.20
2022-11-16T15:04:32.102Z,18.77
2022-11-16T15:07:03.134Z,18.40
2022-11-16T15:09:33.890Z,20.08
2022-11-16T15:12:07.770Z,18.30
2022-11-16T15:14:41.894Z,18.80
2022-11-16T15:17:20.230Z,19.98
2022-11-16T15:19:59.039Z,19.70
2022-11-16T15:22:31.288Z,20.15
2022-11-16T15:25:01.087Z,19.08
2022-11-16T15:27:41.335Z,20.42
2022-11-16T15:30:17.080Z,19.60
2022-11-16T15:32:51.339Z,20.13
2022-11-16T15:35:30.066Z,21.20
2022-11-16T15:38:05.984Z,23.70
2022-11-16T15:40:34.606Z,24.15
2022-11-16T15:43:09.812Z,23.83
2022-11-16T15:45:44.803Z,22.05
2022-11-16T15:48:26.991Z,20.58
2022-11-16T15:51:05.252Z,20.77
2022-11-16T15:53:45.912Z,19.17
2022-11-16T15:56:16.771Z,17.75
2022-11-16T15:58:47.124Z,19.33
2022-11-16T16:04:02.121Z,17.10
2022-11-16T16:06:47.631Z,16.50
2022-11-16T16:09:25.484Z,16.15
2022-11-16T16:11:53.004Z,14.98
2022-11-16T16:14:36.713Z,16.23
2022-11-16T16:17:49.495Z,15.50
2022-11-16T16:24:00.406Z,16.13
2022-11-16T17:06:52.612Z,5.63
2022-11-16T17:09:20.744Z,5.15
2022-11-16T17:11:48.116Z,4.70
2022-11-16T17:14:15.122Z,5.00
2022-11-16T17:16:42.249Z,4.85
2022-11-16T17:19:09.199Z,4.90
2022-11-16T17:21:36.080Z,4.80
2022-11-16T17:24:06.022Z,5.50
2022-11-16T17:26:50.040Z,5.30
2022-11-16T17:29:28.171Z,4.88
2022-11-16T17:32:10.215Z,5.18
2022-11-16T17:34:37.667Z,5.30
2022-11-16T17:37:07.040Z,5.40
2022-11-16T17:40:03.302Z,5.25
2022-11-16T17:42:50.928Z,5.00
2022-11-16T17:45:31.807Z,5.38
2022-11-16T17:48:25.189Z,5.50
2022-11-16T17:51:01.281Z,6.10
2022-11-16T17:53:40.916Z,6.53
2022-11-16T17:56:28.989Z,6.82
2022-11-16T17:59:11.314Z,6.65
2022-11-16T18:01:40.685Z,6.32
2022-11-16T18:04:10.886Z,7.07
2022-11-16T18:33:40.834Z,8.90
2022-11-16T18:36:34.409Z,9.85
2022-11-16T18:39:31.332Z,10.90
2022-11-16T18:42:10.201Z,9.80
2022-11-16T18:45:10.084Z,9.63
2022-11-16T22:41:09.828Z,20.73
2022-11-16T22:43:37.446Z,20.02
2022-11-16T22:46:12.732Z,20.98
2022-11-16T22:48:52.058Z,21.15
2022-11-16T22:51:30.536Z,20.88
2022-11-16T22:54:04.598Z,19.80
2022-11-16T22:56:48.997Z,19.15
2022-11-16T22:59:15.984Z,19.35
2022-11-16T23:01:44.480Z,18.92
2022-11-16T23:04:16.358Z,18.75
2022-11-16T23:06:53.946Z,19.30
2022-11-16T23:09:22.430Z,20.27
2022-11-16T23:11:49.765Z,19.98
2022-11-16T23:14:21.235Z,18.75
2022-11-16T23:16:52.366Z,19.40
2022-11-16T23:19:20.937Z,18.88
2022-11-16T23:21:47.641Z,18.85
2022-11-16T23:24:15.255Z,19.20
2022-11-16T23:26:43.464Z,20.27
2022-11-16T23:29:11.070Z,19.48
2022-11-16T23:31:38.572Z,19.92
2022-11-16T23:34:05.450Z,18.80
2022-11-16T23:36:32.157Z,18.08
2022-11-16T23:38:58.892Z,18.95
2022-11-16T23:41:25.639Z,18.23
2022-11-16T23:43:53.722Z,17.88
2022-11-16T23:46:20.455Z,17.70
2022-11-16T23:48:47.131Z,18.15
2022-11-16T23:51:13.797Z,18.50
2022-11-16T23:53:40.479Z,18.58
2022-11-16T23:56:07.707Z,17.48
2022-11-16T23:58:34.574Z,17.88
